Time;durP1;ratioP1;P1;durP2;ratioP2;P2;SDS_P1;SDS_P2;PMS_P1;PMS_P2;Temp;Humidity;BMP_temperature;BMP_pressure;BME280_temperature;BME280_humidity;BME280_pressure;Samples;Min_cycle;Max_cycle;Signal;HPM_P1;HPM_P2
2023/11/26 00:00:06;;;;;;;0.80;0.80;;;;;;;;;;5047562;28;20253;-77
2023/11/26 00:02:33;;;;;;;0.30;0.30;;;;;;;;;;5041957;28;20259;-78
2023/11/26 00:04:59;;;;;;;0.50;0.50;;;;;;;;;;5050011;28;20202;-78
2023/11/26 00:07:26;;;;;;;0.47;0.47;;;;;;;;;;5050989;28;20619;-78
2023/11/26 00:09:53;;;;;;;0.60;0.57;;;;;;;;;;5051025;28;20202;-77
2023/11/26 00:12:21;;;;;;;0.30;0.30;;;;;;;;;;5050636;28;20296;-78
2023/11/26 00:14:49;;;;;;;0.30;0.30;;;;;;;;;;5050632;28;20214;-78
2023/11/26 00:17:15;;;;;;;0.50;0.50;;;;;;;;;;5051280;28;20212;-80
2023/11/26 00:19:42;;;;;;;0.40;0.40;;;;;;;;;;5050274;28;20202;-78
2023/11/26 00:22:09;;;;;;;0.47;0.47;;;;;;;;;;5051205;28;20210;-78
2023/11/26 00:24:36;;;;;;;0.60;0.60;;;;;;;;;;5037323;28;20209;-78
2023/11/26 00:27:03;;;;;;;0.60;0.60;;;;;;;;;;5050704;28;20209;-78
2023/11/26 00:29:40;;;;;;;0.50;0.50;;;;;;;;;;5045321;28;20198;-81
2023/11/26 00:32:07;;;;;;;0.50;0.50;;;;;;;;;;5043987;28;20213;-82
2023/11/26 00:34:34;;;;;;;0.50;0.50;;;;;;;;;;5051147;28;20229;-79
2023/11/26 00:37:01;;;;;;;0.50;0.50;;;;;;;;;;5051073;28;20267;-87
2023/11/26 00:39:28;;;;;;;0.47;0.47;;;;;;;;;;5031074;28;20219;-79
2023/11/26 00:41:55;;;;;;;0.50;0.50;;;;;;;;;;5044088;28;20210;-82
2023/11/26 00:44:25;;;;;;;0.50;0.50;;;;;;;;;;5030818;28;20209;-80
2023/11/26 00:46:53;;;;;;;0.40;0.40;;;;;;;;;;5045479;28;20666;-79
2023/11/26 00:49:20;;;;;;;0.40;0.40;;;;;;;;;;5050758;28;20198;-78
2023/11/26 00:51:47;;;;;;;0.67;0.60;;;;;;;;;;5048088;28;20198;-78
2023/11/26 00:54:14;;;;;;;0.50;0.50;;;;;;;;;;5039727;28;20562;-78
2023/11/26 00:56:40;;;;;;;0.60;0.60;;;;;;;;;;5050080;28;20212;-78
2023/11/26 00:59:07;;;;;;;0.47;0.47;;;;;;;;;;5050567;28;20763;-78
2023/11/26 01:01:34;;;;;;;0.40;0.40;;;;;;;;;;5050213;28;20208;-78
2023/11/26 01:04:03;;;;;;;0.60;0.60;;;;;;;;;;5050105;28;20228;-78
2023/11/26 01:06:29;;;;;;;0.60;0.60;;;;;;;;;;5049943;28;20572;-78
2023/11/26 01:08:56;;;;;;;0.50;0.50;;;;;;;;;;5050097;28;20198;-79
2023/11/26 01:11:23;;;;;;;0.60;0.60;;;;;;;;;;5036930;28;20210;-79
2023/11/26 01:13:50;;;;;;;0.50;0.50;;;;;;;;;;5050728;28;20228;-79
2023/11/26 01:16:17;;;;;;;0.40;0.40;;;;;;;;;;5050256;28;20281;-79
2023/11/26 01:18:44;;;;;;;0.50;0.50;;;;;;;;;;5039372;28;20644;-78
2023/11/26 01:21:13;;;;;;;0.43;0.43;;;;;;;;;;5048291;28;20225;-78
2023/11/26 01:23:42;;;;;;;0.50;0.50;;;;;;;;;;5038718;28;20245;-79
2023/11/26 01:26:11;;;;;;;0.43;0.43;;;;;;;;;;5043984;28;20238;-78
2023/11/26 01:28:38;;;;;;;0.43;0.43;;;;;;;;;;5042845;28;20202;-79
2023/11/26 01:31:05;;;;;;;0.50;0.50;;;;;;;;;;5049831;28;20210;-78
2023/11/26 01:33:33;;;;;;;0.40;0.40;;;;;;;;;;5038987;28;20210;-79
2023/11/26 01:36:00;;;;;;;0.50;0.50;;;;;;;;;;5050493;28;20778;-79
2023/11/26 01:38:28;;;;;;;0.47;0.43;;;;;;;;;;5042565;28;20242;-78
2023/11/26 01:40:55;;;;;;;0.40;0.40;;;;;;;;;;5052838;28;20202;-80
2023/11/26 01:43:23;;;;;;;0.50;0.50;;;;;;;;;;5053675;28;20209;-79
2023/11/26 01:45:51;;;;;;;0.40;0.40;;;;;;;;;;5053536;28;20206;-79
2023/11/26 01:48:17;;;;;;;0.50;0.50;;;;;;;;;;5053066;28;20237;-79
2023/11/26 01:50:44;;;;;;;0.30;0.30;;;;;;;;;;5053640;28;20202;-79
2023/11/26 01:53:11;;;;;;;0.30;0.30;;;;;;;;;;5040615;28;20198;-78
2023/11/26 01:55:41;;;;;;;0.40;0.40;;;;;;;;;;5047196;28;20285;-79
2023/11/26 01:58:08;;;;;;;0.40;0.40;;;;;;;;;;5046713;28;20279;-79
2023/11/26 02:00:35;;;;;;;0.70;0.70;;;;;;;;;;5053247;28;20260;-79
2023/11/26 02:03:04;;;;;;;0.70;0.60;;;;;;;;;;5053177;28;20722;-79
2023/11/26 02:05:31;;;;;;;1.13;0.57;;;;;;;;;;5046025;28;20198;-79
2023/11/26 02:07:58;;;;;;;2.73;0.37;;;;;;;;;;5047614;28;20595;-79
2023/11/26 02:10:25;;;;;;;0.50;0.50;;;;;;;;;;5045142;28;20690;-79
2023/11/26 02:13:08;;;;;;;0.40;0.40;;;;;;;;;;5048461;28;20588;-79
2023/11/26 02:15:35;;;;;;;0.40;0.40;;;;;;;;;;5053231;28;20646;-79
2023/11/26 02:18:02;;;;;;;0.43;0.43;;;;;;;;;;5035460;28;20727;-80
2023/11/26 02:20:29;;;;;;;0.47;0.47;;;;;;;;;;5044207;28;20209;-79
2023/11/26 02:22:56;;;;;;;0.50;0.50;;;;;;;;;;5039735;28;20206;-79
2023/11/26 02:25:29;;;;;;;0.40;0.40;;;;;;;;;;5052890;28;20206;-80
2023/11/26 02:27:56;;;;;;;0.60;0.60;;;;;;;;;;5053035;28;20217;-80
2023/11/26 02:30:24;;;;;;;0.40;0.40;;;;;;;;;;5053094;28;20225;-79
2023/11/26 02:32:52;;;;;;;0.53;0.53;;;;;;;;;;5047446;28;20234;-80
2023/11/26 02:35:19;;;;;;;0.43;0.43;;;;;;;;;;5033093;28;20210;-80
2023/11/26 02:37:47;;;;;;;0.60;0.60;;;;;;;;;;5038731;28;20790;-81
2023/11/26 02:40:15;;;;;;;0.60;0.50;;;;;;;;;;5052653;28;20241;-79
2023/11/26 02:42:45;;;;;;;0.50;0.50;;;;;;;;;;5046316;28;20199;-79
2023/11/26 02:45:12;;;;;;;0.83;0.67;;;;;;;;;;5045523;28;20210;-79
2023/11/26 02:47:39;;;;;;;0.50;0.50;;;;;;;;;;5040101;28;20194;-79
2023/11/26 02:50:08;;;;;;;0.50;0.50;;;;;;;;;;5051959;28;20209;-80
2023/11/26 02:52:35;;;;;;;0.50;0.50;;;;;;;;;;5052308;28;20201;-79
2023/11/26 02:55:01;;;;;;;0.50;0.50;;;;;;;;;;5052296;28;20217;-79
2023/11/26 02:57:28;;;;;;;0.67;0.67;;;;;;;;;;5052033;28;20205;-79
2023/11/26 02:59:56;;;;;;;0.60;0.60;;;;;;;;;;5051947;28;20736;-81
2023/11/26 03:02:23;;;;;;;0.60;0.60;;;;;;;;;;5043888;28;20213;-79
2023/11/26 03:04:53;;;;;;;0.60;0.60;;;;;;;;;;5047344;28;20202;-80
2023/11/26 03:07:21;;;;;;;0.50;0.50;;;;;;;;;;5052727;28;20206;-79
2023/11/26 03:15:16;;;;;;;0.70;0.70;;;;;;;;;;5052508;28;20320;-79
2023/11/26 03:17:42;;;;;;;0.50;0.50;;;;;;;;;;5039133;28;20216;-79
2023/11/26 03:20:10;;;;;;;0.60;0.60;;;;;;;;;;5043562;28;20709;-82
2023/11/26 03:22:37;;;;;;;0.53;0.53;;;;;;;;;;5034654;28;20555;-82
2023/11/26 03:25:05;;;;;;;0.60;0.60;;;;;;;;;;5026406;28;20212;-82
2023/11/26 03:27:33;;;;;;;0.60;0.60;;;;;;;;;;5052190;28;20206;-81
2023/11/26 03:30:00;;;;;;;0.43;0.43;;;;;;;;;;5052033;28;20267;-81
2023/11/26 03:32:29;;;;;;;0.60;0.40;;;;;;;;;;5049457;28;20205;-82
2023/11/26 03:34:56;;;;;;;0.40;0.40;;;;;;;;;;5042240;28;20202;-82
2023/11/26 03:37:23;;;;;;;0.50;0.50;;;;;;;;;;5049259;28;20226;-82
2023/11/26 03:39:50;;;;;;;0.80;0.80;;;;;;;;;;5041686;28;20226;-81
2023/11/26 03:42:16;;;;;;;0.60;0.60;;;;;;;;;;5051883;28;20213;-82
2023/11/26 03:44:43;;;;;;;0.40;0.40;;;;;;;;;;5051730;28;20284;-82
2023/11/26 03:47:10;;;;;;;0.50;0.50;;;;;;;;;;5038831;28;20202;-81
2023/11/26 03:49:41;;;;;;;0.40;0.40;;;;;;;;;;5041411;28;20238;-81
2023/11/26 03:52:10;;;;;;;0.50;0.50;;;;;;;;;;5044974;28;20696;-82
2023/11/26 03:54:37;;;;;;;0.70;0.70;;;;;;;;;;5044111;28;20206;-81
2023/11/26 03:57:06;;;;;;;0.73;0.73;;;;;;;;;;5051489;28;20217;-82
2023/11/26 03:59:32;;;;;;;0.50;0.50;;;;;;;;;;5038686;28;20231;-82
2023/11/26 04:01:59;;;;;;;0.50;0.50;;;;;;;;;;5044869;28;20210;-81
2023/11/26 04:04:26;;;;;;;0.50;0.50;;;;;;;;;;5044493;28;20205;-83
2023/11/26 04:06:54;;;;;;;0.50;0.50;;;;;;;;;;5038279;28;20210;-88
2023/11/26 04:09:21;;;;;;;1.00;1.00;;;;;;;;;;5051511;28;20295;-86
2023/11/26 04:11:48;;;;;;;0.90;0.90;;;;;;;;;;5018372;28;20234;-82
2023/11/26 04:14:15;;;;;;;0.50;0.50;;;;;;;;;;5044940;28;20224;-82
2023/11/26 04:16:48;;;;;;;0.60;0.60;;;;;;;;;;5044030;28;20198;-82
2023/11/26 04:22:00;;;;;;;0.70;0.70;;;;;;;;;;5037445;28;20210;-83
2023/11/26 04:24:26;;;;;;;0.60;0.60;;;;;;;;;;5052076;28;20225;-90
2023/11/26 04:26:53;;;;;;;0.63;0.63;;;;;;;;;;5040855;28;20206;-86
2023/11/26 04:29:20;;;;;;;0.70;0.70;;;;;;;;;;5035803;28;20210;-86
2023/11/26 04:31:47;;;;;;;0.60;0.60;;;;;;;;;;5051835;28;20202;-86
2023/11/26 04:34:14;;;;;;;1.00;0.70;;;;;;;;;;5050453;28;20198;-85
2023/11/26 04:36:41;;;;;;;0.50;0.50;;;;;;;;;;5051090;28;20230;-85
2023/11/26 04:39:11;;;;;;;0.70;0.70;;;;;;;;;;5037884;28;20230;-84
2023/11/26 04:41:40;;;;;;;0.40;0.40;;;;;;;;;;5050827;28;20216;-83
2023/11/26 04:44:08;;;;;;;0.57;0.57;;;;;;;;;;5045808;28;20590;-84
2023/11/26 04:46:35;;;;;;;0.60;0.60;;;;;;;;;;5043539;28;20680;-83
2023/11/26 04:49:02;;;;;;;0.50;0.50;;;;;;;;;;5041625;28;20214;-83
2023/11/26 04:51:30;;;;;;;0.40;0.40;;;;;;;;;;5047263;28;20296;-83
2023/11/26 04:53:57;;;;;;;0.50;0.50;;;;;;;;;;5050881;28;20202;-83
2023/11/26 04:56:25;;;;;;;0.40;0.40;;;;;;;;;;5050951;28;20210;-83
2023/11/26 04:58:52;;;;;;;1.60;0.40;;;;;;;;;;5050615;28;20237;-84
2023/11/26 05:01:22;;;;;;;0.60;0.53;;;;;;;;;;5051237;28;20232;-84
2023/11/26 05:03:49;;;;;;;0.30;0.30;;;;;;;;;;5051236;28;20267;-85
2023/11/26 05:06:16;;;;;;;0.40;0.40;;;;;;;;;;5050768;28;20205;-83
2023/11/26 05:08:43;;;;;;;0.50;0.50;;;;;;;;;;5037355;28;20261;-82
2023/11/26 05:11:09;;;;;;;0.40;0.40;;;;;;;;;;5054378;28;20206;-81
2023/11/26 05:13:38;;;;;;;0.60;0.60;;;;;;;;;;5027560;28;20273;-81
2023/11/26 05:16:06;;;;;;;0.60;0.60;;;;;;;;;;5054533;28;20216;-81
2023/11/26 05:18:33;;;;;;;0.70;0.70;;;;;;;;;;5054219;28;20202;-81
2023/11/26 05:21:00;;;;;;;0.87;0.60;;;;;;;;;;5054561;28;20202;-82
2023/11/26 05:23:27;;;;;;;0.50;0.50;;;;;;;;;;5053569;28;20206;-81
2023/11/26 05:25:54;;;;;;;0.40;0.40;;;;;;;;;;5045653;28;20203;-80
2023/11/26 05:28:21;;;;;;;0.47;0.47;;;;;;;;;;5033978;28;20210;-81
2023/11/26 05:30:49;;;;;;;0.40;0.40;;;;;;;;;;5034499;28;20207;-82
2023/11/26 05:33:16;;;;;;;0.50;0.50;;;;;;;;;;5042507;28;20206;-82
2023/11/26 05:35:43;;;;;;;0.57;0.57;;;;;;;;;;5051518;28;20206;-82
2023/11/26 05:38:10;;;;;;;0.50;0.50;;;;;;;;;;5054479;28;20237;-81
2023/11/26 05:40:36;;;;;;;0.50;0.50;;;;;;;;;;5053742;28;20652;-83
2023/11/26 05:43:03;;;;;;;0.30;0.30;;;;;;;;;;5054006;28;20205;-85
2023/11/26 05:45:31;;;;;;;0.60;0.60;;;;;;;;;;5054080;28;20688;-82
2023/11/26 05:47:59;;;;;;;2.10;1.90;;;;;;;;;;5052290;28;20199;-81
2023/11/26 05:50:26;;;;;;;2.13;1.50;;;;;;;;;;5033966;28;20595;-81
2023/11/26 05:52:54;;;;;;;0.67;0.67;;;;;;;;;;5037846;28;20215;-80
2023/11/26 05:55:22;;;;;;;0.70;0.70;;;;;;;;;;5054284;28;20206;-82
2023/11/26 05:57:49;;;;;;;0.60;0.60;;;;;;;;;;5050821;28;20236;-83
2023/11/26 06:00:16;;;;;;;1.10;1.10;;;;;;;;;;5043623;28;20229;-83
2023/11/26 06:02:43;;;;;;;0.57;0.57;;;;;;;;;;5040375;28;20216;-83
2023/11/26 06:05:12;;;;;;;0.50;0.50;;;;;;;;;;5053399;28;20684;-84
2023/11/26 06:07:39;;;;;;;0.83;0.83;;;;;;;;;;5054262;28;20284;-85
2023/11/26 06:10:07;;;;;;;0.63;0.60;;;;;;;;;;5042862;28;20206;-77
2023/11/26 06:12:34;;;;;;;1.27;1.10;;;;;;;;;;5033919;28;20218;-82
2023/11/26 06:15:02;;;;;;;0.70;0.70;;;;;;;;;;5049851;28;20216;-85
2023/11/26 06:17:29;;;;;;;0.50;0.50;;;;;;;;;;5053845;28;20216;-80
2023/11/26 06:19:56;;;;;;;0.80;0.80;;;;;;;;;;5053818;28;20214;-80
2023/11/26 06:22:24;;;;;;;0.93;0.70;;;;;;;;;;5042784;28;20202;-80
2023/11/26 06:24:51;;;;;;;0.70;0.70;;;;;;;;;;5049530;28;20217;-81
2023/11/26 06:27:18;;;;;;;1.27;1.17;;;;;;;;;;5050064;28;20209;-81
2023/11/26 06:29:45;;;;;;;0.90;0.90;;;;;;;;;;5039902;28;20210;-78
2023/11/26 06:32:12;;;;;;;1.70;1.53;;;;;;;;;;5051280;28;20288;-82
2023/11/26 06:34:38;;;;;;;2.10;1.60;;;;;;;;;;5045992;28;20209;-82
2023/11/26 06:37:06;;;;;;;20.30;14.43;;;;;;;;;;5046354;28;20256;-82
2023/11/26 06:39:34;;;;;;;8.83;7.47;;;;;;;;;;5052691;28;20226;-82
2023/11/26 06:42:01;;;;;;;7.77;6.37;;;;;;;;;;5039797;28;20626;-81
2023/11/26 06:44:28;;;;;;;46.63;28.90;;;;;;;;;;5045673;28;20759;-81
2023/11/26 06:46:55;;;;;;;30.03;18.63;;;;;;;;;;5034317;28;20210;-82
2023/11/26 06:49:23;;;;;;;10.37;8.00;;;;;;;;;;5045128;28;20211;-82
2023/11/26 06:51:53;;;;;;;20.00;13.73;;;;;;;;;;5047694;28;20680;-82
2023/11/26 06:54:19;;;;;;;9.20;7.50;;;;;;;;;;5053383;28;20212;-83
2023/11/26 06:56:48;;;;;;;17.47;14.13;;;;;;;;;;5052527;28;20206;-82
2023/11/26 06:59:14;;;;;;;7.33;6.60;;;;;;;;;;5043697;28;20211;-82
2023/11/26 07:01:41;;;;;;;44.57;27.73;;;;;;;;;;5033112;28;20210;-81
2023/11/26 07:04:11;;;;;;;24.63;14.73;;;;;;;;;;5032585;28;20215;-82
2023/11/26 07:06:38;;;;;;;4.73;3.70;;;;;;;;;;5024084;28;20243;-82
2023/11/26 07:09:09;;;;;;;11.50;7.90;;;;;;;;;;5052263;28;20209;-82
2023/11/26 07:11:36;;;;;;;3.33;3.03;;;;;;;;;;5051956;28;20202;-82
2023/11/26 07:14:05;;;;;;;7.53;5.27;;;;;;;;;;5052508;28;20213;-82
2023/11/26 07:16:32;;;;;;;2.90;2.60;;;;;;;;;;5039059;28;20202;-81
2023/11/26 07:18:59;;;;;;;10.63;7.23;;;;;;;;;;5039326;28;20230;-82
2023/11/26 07:21:26;;;;;;;7.30;5.20;;;;;;;;;;5047533;28;20214;-81
2023/11/26 07:23:54;;;;;;;10.47;7.17;;;;;;;;;;5047163;28;20212;-82
2023/11/26 07:26:22;;;;;;;2.37;2.17;;;;;;;;;;5033628;28;20202;-82
2023/11/26 07:28:50;;;;;;;1.97;1.83;;;;;;;;;;5031998;28;20622;-82
2023/11/26 07:31:19;;;;;;;14.87;10.60;;;;;;;;;;5041836;28;20205;-81
2023/11/26 07:33:46;;;;;;;1.43;1.33;;;;;;;;;;5049258;28;20225;-84
2023/11/26 07:36:16;;;;;;;6.00;4.73;;;;;;;;;;5045339;28;20775;-82
2023/11/26 07:38:43;;;;;;;3.33;3.03;;;;;;;;;;5032388;28;20198;-81
2023/11/26 07:41:10;;;;;;;2.40;2.20;;;;;;;;;;5044863;28;20241;-82
2023/11/26 07:43:40;;;;;;;1.23;1.13;;;;;;;;;;5044130;28;20210;-82
2023/11/26 07:46:08;;;;;;;1.33;1.23;;;;;;;;;;5045211;28;20267;-82
2023/11/26 07:48:36;;;;;;;1.00;0.90;;;;;;;;;;5040033;28;20627;-81
2023/11/26 07:51:04;;;;;;;4.00;3.17;;;;;;;;;;5049449;28;20335;-82
2023/11/26 07:53:32;;;;;;;15.80;8.60;;;;;;;;;;5031435;28;20213;-82
2023/11/26 07:55:59;;;;;;;2.47;2.00;;;;;;;;;;5044770;28;20209;-82
2023/11/26 07:58:27;;;;;;;1.00;1.00;;;;;;;;;;5041279;28;20236;-82
2023/11/26 08:00:55;;;;;;;3.10;2.43;;;;;;;;;;5034531;28;20238;-82
2023/11/26 08:03:22;;;;;;;1.70;1.60;;;;;;;;;;5042465;28;20206;-83
2023/11/26 08:05:51;;;;;;;1.83;1.50;;;;;;;;;;5038424;28;20213;-82
2023/11/26 08:08:21;;;;;;;1.33;1.23;;;;;;;;;;5051080;28;20244;-82
2023/11/26 08:10:48;;;;;;;0.93;0.90;;;;;;;;;;5051529;28;20263;-82
2023/11/26 08:13:15;;;;;;;1.37;1.30;;;;;;;;;;5039931;28;20211;-82
2023/11/26 08:15:42;;;;;;;1.53;1.00;;;;;;;;;;5031313;28;20211;-82
2023/11/26 08:18:12;;;;;;;1.70;1.60;;;;;;;;;;5024765;28;20614;-82
2023/11/26 08:20:40;;;;;;;2.33;2.13;;;;;;;;;;5050290;28;20233;-82
2023/11/26 08:23:12;;;;;;;1.83;1.50;;;;;;;;;;5038759;28;20209;-81
2023/11/26 08:25:39;;;;;;;1.40;1.30;;;;;;;;;;5036019;28;20207;-82
2023/11/26 08:28:07;;;;;;;1.10;1.00;;;;;;;;;;5031447;28;20559;-81
2023/11/26 08:30:39;;;;;;;1.30;1.20;;;;;;;;;;5046678;28;20229;-81
2023/11/26 08:33:07;;;;;;;1.90;1.80;;;;;;;;;;5050910;28;20233;-81
2023/11/26 08:35:34;;;;;;;1.97;1.77;;;;;;;;;;5049571;28;20209;-81
2023/11/26 08:38:01;;;;;;;11.87;9.53;;;;;;;;;;5039239;28;20708;-80
2023/11/26 08:40:33;;;;;;;18.50;13.17;;;;;;;;;;5050414;28;20719;-82
2023/11/26 08:43:01;;;;;;;14.93;11.87;;;;;;;;;;5051392;28;20297;-83
2023/11/26 08:45:28;;;;;;;2.17;2.07;;;;;;;;;;5050360;28;20201;-82
2023/11/26 08:47:55;;;;;;;1.83;1.70;;;;;;;;;;5051931;28;20197;-87
2023/11/26 08:50:22;;;;;;;1.33;1.23;;;;;;;;;;5051912;28;20271;-89
2023/11/26 08:52:51;;;;;;;0.60;0.60;;;;;;;;;;5043604;28;20622;-81
2023/11/26 08:55:19;;;;;;;1.67;1.57;;;;;;;;;;5040629;28;20284;-80
2023/11/26 08:57:48;;;;;;;2.37;2.17;;;;;;;;;;5040372;28;20259;-81
2023/11/26 09:00:16;;;;;;;6.30;4.63;;;;;;;;;;5042536;28;20234;-92
2023/11/26 09:02:42;;;;;;;3.43;3.13;;;;;;;;;;5048518;28;20205;-81
2023/11/26 09:05:09;;;;;;;2.50;2.13;;;;;;;;;;5040119;28;20213;-86
2023/11/26 09:07:36;;;;;;;2.57;1.83;;;;;;;;;;5048912;28;20198;-85
2023/11/26 09:10:03;;;;;;;1.20;1.10;;;;;;;;;;5039463;28;20203;-80
2023/11/26 09:12:31;;;;;;;1.23;1.10;;;;;;;;;;5047097;28;20206;-82
2023/11/26 09:15:00;;;;;;;0.80;0.80;;;;;;;;;;5043319;28;20214;-84
2023/11/26 09:17:27;;;;;;;1.40;1.30;;;;;;;;;;5030201;28;20709;-78
2023/11/26 09:19:54;;;;;;;0.83;0.80;;;;;;;;;;5050092;28;20202;-84
2023/11/26 09:22:21;;;;;;;3.13;2.37;;;;;;;;;;5037653;28;20207;-81
2023/11/26 09:24:48;;;;;;;7.13;5.10;;;;;;;;;;5050709;28;20206;-87
2023/11/26 09:27:15;;;;;;;1.30;1.20;;;;;;;;;;5037906;28;20211;-79
2023/11/26 09:29:42;;;;;;;1.27;1.27;;;;;;;;;;5049695;28;20292;-80
2023/11/26 09:32:11;;;;;;;2.13;2.03;;;;;;;;;;5049833;28;20217;-78
2023/11/26 09:34:37;;;;;;;1.87;1.77;;;;;;;;;;5042063;28;20218;-78
2023/11/26 09:37:06;;;;;;;1.10;1.10;;;;;;;;;;5030184;28;20245;-80
2023/11/26 09:39:34;;;;;;;4.27;2.87;;;;;;;;;;5046416;28;20217;-79
2023/11/26 09:42:02;;;;;;;2.10;2.00;;;;;;;;;;5047588;28;20254;-80
2023/11/26 09:44:29;;;;;;;2.23;2.03;;;;;;;;;;5049662;28;20198;-77
2023/11/26 09:46:56;;;;;;;2.50;2.30;;;;;;;;;;5049849;28;20297;-77
2023/11/26 09:49:25;;;;;;;2.23;2.13;;;;;;;;;;5049362;28;20202;-78
2023/11/26 09:51:56;;;;;;;2.73;2.53;;;;;;;;;;5049708;28;20202;-79
2023/11/26 09:54:24;;;;;;;2.63;2.37;;;;;;;;;;5024657;28;20198;-78
2023/11/26 09:56:58;;;;;;;3.10;2.83;;;;;;;;;;5051268;28;20631;-77
2023/11/26 09:59:26;;;;;;;3.33;3.07;;;;;;;;;;5041506;28;20205;-78
2023/11/26 10:01:54;;;;;;;2.33;2.10;;;;;;;;;;5046408;28;20226;-78
2023/11/26 10:04:23;;;;;;;4.63;3.33;;;;;;;;;;5052586;28;20202;-78
2023/11/26 10:06:51;;;;;;;2.00;1.90;;;;;;;;;;5048070;28;20202;-78
2023/11/26 10:09:18;;;;;;;3.97;3.47;;;;;;;;;;5047769;28;20209;-78
2023/11/26 10:11:46;;;;;;;5.33;4.83;;;;;;;;;;5053374;28;20202;-78
2023/11/26 10:14:16;;;;;;;3.33;2.80;;;;;;;;;;5052455;28;20588;-78
2023/11/26 10:16:44;;;;;;;3.40;3.03;;;;;;;;;;5053068;28;20226;-79
2023/11/26 10:19:24;;;;;;;3.33;3.03;;;;;;;;;;5051507;28;20202;-78
2023/11/26 10:21:56;;;;;;;4.03;3.63;;;;;;;;;;5052653;28;20237;-78
2023/11/26 10:24:23;;;;;;;3.93;3.43;;;;;;;;;;5053436;28;20285;-76
2023/11/26 10:26:52;;;;;;;4.87;3.53;;;;;;;;;;5052866;28;20211;-78
2023/11/26 10:29:21;;;;;;;3.57;3.27;;;;;;;;;;5052568;28;20205;-78
2023/11/26 10:32:03;;;;;;;3.20;3.00;;;;;;;;;;5053243;28;20290;-77
2023/11/26 10:34:33;;;;;;;32.90;19.23;;;;;;;;;;5052701;28;20239;-78
2023/11/26 10:37:00;;;;;;;19.17;13.63;;;;;;;;;;5052543;28;20226;-79
2023/11/26 10:39:27;;;;;;;19.87;11.73;;;;;;;;;;5045793;28;20210;-78
2023/11/26 10:41:55;;;;;;;18.50;13.50;;;;;;;;;;5032607;28;20276;-82
2023/11/26 10:44:23;;;;;;;14.57;6.53;;;;;;;;;;5052574;28;20194;-78
2023/11/26 10:46:50;;;;;;;7.13;5.40;;;;;;;;;;5039304;28;20230;-78
2023/11/26 10:49:22;;;;;;;7.67;5.60;;;;;;;;;;5052721;28;20206;-78
2023/11/26 10:52:00;;;;;;;11.63;7.80;;;;;;;;;;5052509;28;20209;-78
2023/11/26 10:54:32;;;;;;;13.03;10.20;;;;;;;;;;5052693;28;20295;-77
2023/11/26 10:57:13;;;;;;;6.90;4.73;;;;;;;;;;5052429;28;20256;-78
2023/11/26 10:59:45;;;;;;;20.73;13.70;;;;;;;;;;5052077;28;20202;-77
2023/11/26 11:02:14;;;;;;;10.43;8.53;;;;;;;;;;5052131;28;20226;-77
2023/11/26 11:04:46;;;;;;;11.30;7.43;;;;;;;;;;5052174;28;20209;-77
2023/11/26 11:07:15;;;;;;;6.43;5.80;;;;;;;;;;5042740;28;20234;-78
2023/11/26 11:09:48;;;;;;;3.57;3.27;;;;;;;;;;5034734;28;20199;-78
2023/11/26 11:12:16;;;;;;;4.73;3.67;;;;;;;;;;5052338;28;20213;-79
2023/11/26 11:14:43;;;;;;;6.70;4.90;;;;;;;;;;5032087;28;20226;-78
2023/11/26 11:17:10;;;;;;;2.97;2.77;;;;;;;;;;5036109;28;20206;-79
2023/11/26 11:19:50;;;;;;;2.93;2.67;;;;;;;;;;5044304;28;20207;-78
2023/11/26 11:22:19;;;;;;;2.80;2.60;;;;;;;;;;5047871;28;20230;-78
2023/11/26 11:24:46;;;;;;;3.73;3.23;;;;;;;;;;5051899;28;20198;-78
2023/11/26 11:27:13;;;;;;;2.17;1.97;;;;;;;;;;5051106;28;20205;-78
2023/11/26 11:29:40;;;;;;;3.37;2.80;;;;;;;;;;5051430;28;20213;-78
2023/11/26 11:32:09;;;;;;;4.50;3.03;;;;;;;;;;5051622;28;20210;-79
2023/11/26 11:34:36;;;;;;;7.73;6.40;;;;;;;;;;5051501;28;20689;-78
2023/11/26 11:37:03;;;;;;;4.53;4.00;;;;;;;;;;5051094;28;20734;-79
2023/11/26 11:39:46;;;;;;;4.33;3.93;;;;;;;;;;5038508;28;20613;-79
2023/11/26 11:42:13;;;;;;;2.83;2.60;;;;;;;;;;5038339;28;20711;-78
2023/11/26 11:44:42;;;;;;;2.37;2.20;;;;;;;;;;5051574;28;20251;-78
2023/11/26 11:47:13;;;;;;;4.03;3.63;;;;;;;;;;5051727;28;20198;-78
2023/11/26 11:50:06;;;;;;;3.30;3.00;;;;;;;;;;5048368;28;20226;-78
2023/11/26 11:52:33;;;;;;;2.83;2.57;;;;;;;;;;5019491;28;20677;-78
2023/11/26 11:55:41;;;;;;;2.90;2.70;;;;;;;;;;5031290;28;20690;-79
2023/11/26 11:58:16;;;;;;;2.90;2.70;;;;;;;;;;5015385;28;20207;-79
2023/11/26 12:00:44;;;;;;;2.47;2.27;;;;;;;;;;5031202;28;20196;-78
2023/11/26 12:03:16;;;;;;;2.23;2.00;;;;;;;;;;5050762;28;20225;-79
2023/11/26 12:05:43;;;;;;;2.17;1.97;;;;;;;;;;5049872;28;20750;-79
2023/11/26 12:08:13;;;;;;;3.10;2.80;;;;;;;;;;5050045;28;20204;-79
2023/11/26 12:10:40;;;;;;;3.20;2.90;;;;;;;;;;5032311;28;20214;-79
2023/11/26 12:13:08;;;;;;;4.43;3.33;;;;;;;;;;5043995;28;20201;-79
2023/11/26 12:15:38;;;;;;;3.27;2.80;;;;;;;;;;5037441;28;20197;-79
2023/11/26 12:18:08;;;;;;;3.00;2.80;;;;;;;;;;5042783;28;20206;-79
2023/11/26 12:20:35;;;;;;;3.27;2.97;;;;;;;;;;5043624;28;20672;-79
2023/11/26 12:23:02;;;;;;;6.47;5.73;;;;;;;;;;5050492;28;20232;-79
2023/11/26 12:25:30;;;;;;;2.77;2.57;;;;;;;;;;5050758;28;20206;-81
2023/11/26 12:28:06;;;;;;;5.40;3.90;;;;;;;;;;5018024;28;20677;-79
2023/11/26 12:30:34;;;;;;;5.07;4.03;;;;;;;;;;5045777;28;20248;-80
2023/11/26 12:33:03;;;;;;;3.07;2.87;;;;;;;;;;5050707;28;20220;-79
2023/11/26 12:35:30;;;;;;;2.67;2.30;;;;;;;;;;5050609;28;20202;-83
2023/11/26 12:37:59;;;;;;;4.30;3.90;;;;;;;;;;5043819;28;20244;-80
2023/11/26 12:40:26;;;;;;;3.30;2.50;;;;;;;;;;5044291;28;20214;-86
2023/11/26 12:42:55;;;;;;;3.03;2.53;;;;;;;;;;5038444;28;20225;-86
2023/11/26 12:45:22;;;;;;;2.73;2.47;;;;;;;;;;5037367;28;20240;-82
2023/11/26 12:47:51;;;;;;;1.93;1.83;;;;;;;;;;5042199;28;20202;-83
2023/11/26 12:50:19;;;;;;;4.33;3.23;;;;;;;;;;5031220;28;20202;-85
2023/11/26 12:52:47;;;;;;;3.47;3.17;;;;;;;;;;5031608;28;20208;-83
2023/11/26 12:55:14;;;;;;;3.03;2.80;;;;;;;;;;5044090;28;20214;-82
2023/11/26 12:57:41;;;;;;;3.27;2.97;;;;;;;;;;5041186;28;20264;-82
2023/11/26 13:00:12;;;;;;;2.90;2.67;;;;;;;;;;5047601;28;20578;-83
2023/11/26 13:02:39;;;;;;;2.97;2.77;;;;;;;;;;5041819;28;20275;-82
2023/11/26 13:05:28;;;;;;;3.47;3.17;;;;;;;;;;5037309;28;20221;-82
2023/11/26 13:07:56;;;;;;;5.33;3.73;;;;;;;;;;5051083;28;20233;-81
2023/11/26 13:10:41;;;;;;;4.93;3.77;;;;;;;;;;5051230;28;20637;-81
2023/11/26 13:13:08;;;;;;;6.07;5.47;;;;;;;;;;5050436;28;20596;-82
2023/11/26 13:15:35;;;;;;;11.93;7.97;;;;;;;;;;5050536;28;20365;-82
2023/11/26 13:18:01;;;;;;;10.47;7.60;;;;;;;;;;5050200;28;20212;-83
2023/11/26 13:20:30;;;;;;;4.10;2.50;;;;;;;;;;5040949;28;20248;-84
2023/11/26 13:22:58;;;;;;;3.17;2.73;;;;;;;;;;5035545;28;20313;-85
2023/11/26 13:25:25;;;;;;;3.13;2.83;;;;;;;;;;5031181;28;20222;-84
2023/11/26 13:27:52;;;;;;;3.37;3.07;;;;;;;;;;5044054;28;20207;-84
2023/11/26 13:30:19;;;;;;;3.27;2.17;;;;;;;;;;5045010;28;20289;-83
2023/11/26 13:32:46;;;;;;;4.57;4.17;;;;;;;;;;5027907;28;20704;-82
2023/11/26 13:35:14;;;;;;;4.83;3.93;;;;;;;;;;5042729;28;20213;-82
2023/11/26 13:37:42;;;;;;;11.03;7.17;;;;;;;;;;5021074;28;20584;-82
2023/11/26 13:40:15;;;;;;;21.20;13.37;;;;;;;;;;5047428;28;20206;-82
2023/11/26 13:42:43;;;;;;;13.13;9.93;;;;;;;;;;5041525;28;20229;-82
2023/11/26 13:45:10;;;;;;;11.60;9.03;;;;;;;;;;5040571;28;20362;-81
2023/11/26 13:47:37;;;;;;;16.43;10.43;;;;;;;;;;5024619;28;20199;-81
2023/11/26 13:50:04;;;;;;;7.77;4.80;;;;;;;;;;5035225;28;20290;-83
2023/11/26 13:52:31;;;;;;;13.90;8.70;;;;;;;;;;5036199;28;20673;-81
2023/11/26 13:54:59;;;;;;;18.90;12.93;;;;;;;;;;5038834;28;20201;-81
2023/11/26 13:57:26;;;;;;;10.93;6.83;;;;;;;;;;5036525;28;20199;-81
2023/11/26 13:59:55;;;;;;;8.70;4.43;;;;;;;;;;5033945;28;20202;-84
2023/11/26 14:02:22;;;;;;;10.77;6.20;;;;;;;;;;5033620;28;20838;-82
2023/11/26 14:04:49;;;;;;;9.07;5.50;;;;;;;;;;5039980;28;20206;-83
2023/11/26 14:07:15;;;;;;;5.90;3.53;;;;;;;;;;5037634;28;20291;-82
2023/11/26 14:09:44;;;;;;;6.03;3.97;;;;;;;;;;5037160;28;20206;-82
2023/11/26 14:12:12;;;;;;;5.53;4.70;;;;;;;;;;5033575;28;20206;-82
2023/11/26 14:14:40;;;;;;;10.53;8.00;;;;;;;;;;5029111;28;20593;-81
2023/11/26 14:17:10;;;;;;;5.33;3.97;;;;;;;;;;5038903;28;20207;-82
2023/11/26 14:19:37;;;;;;;5.57;2.90;;;;;;;;;;5044820;28;20700;-81
2023/11/26 14:22:04;;;;;;;5.50;3.80;;;;;;;;;;5034059;28;20229;-81
2023/11/26 14:24:32;;;;;;;4.93;3.80;;;;;;;;;;5033986;28;20207;-82
2023/11/26 14:26:59;;;;;;;4.53;4.07;;;;;;;;;;5034187;28;20202;-81
2023/11/26 14:29:27;;;;;;;6.10;4.13;;;;;;;;;;5034010;28;20215;-82
2023/11/26 14:31:54;;;;;;;5.33;4.20;;;;;;;;;;5034855;28;20218;-82
2023/11/26 14:34:21;;;;;;;3.23;2.93;;;;;;;;;;5046501;28;20202;-80
2023/11/26 14:36:49;;;;;;;3.90;3.37;;;;;;;;;;5033405;28;20230;-80
2023/11/26 14:39:16;;;;;;;4.93;4.43;;;;;;;;;;5038909;28;20213;-80
2023/11/26 14:41:43;;;;;;;3.70;3.20;;;;;;;;;;5040413;28;20285;-80
2023/11/26 14:44:10;;;;;;;3.37;3.07;;;;;;;;;;5034969;28;20218;-85
2023/11/26 14:46:38;;;;;;;2.57;2.30;;;;;;;;;;5046249;28;20193;-80
2023/11/26 14:49:05;;;;;;;3.13;2.73;;;;;;;;;;5026399;28;20676;-80
2023/11/26 14:51:33;;;;;;;5.50;3.07;;;;;;;;;;5052687;28;20198;-80
2023/11/26 14:54:00;;;;;;;2.77;2.57;;;;;;;;;;5052218;28;20260;-80